Time;durP1;ratioP1;P1;durP2;ratioP2;P2;SDS_P1;SDS_P2;PMS_P1;PMS_P2;Temp;Humidity;BMP_temperature;BMP_pressure;BME280_temperature;BME280_humidity;BME280_pressure;Samples;Min_cycle;Max_cycle;Signal;HPM_P1;HPM_P2
2023/05/07 00:01:46;;;;;;;;;;;;;;;18.33;60.06;100518.28;4934766;28;7064;-76
2023/05/07 00:04:13;;;;;;;;;;;;;;;18.33;59.74;100520.88;4939211;28;6988;-75
2023/05/07 00:06:38;;;;;;;;;;;;;;;18.35;59.65;100518.34;4932356;28;6789;-78
2023/05/07 00:09:04;;;;;;;;;;;;;;;18.34;60.07;100530.41;4932782;28;6842;-75
2023/05/07 00:11:30;;;;;;;;;;;;;;;18.35;60.07;100531.31;4943239;28;7230;-75
2023/05/07 00:13:56;;;;;;;;;;;;;;;18.35;59.99;100521.81;4946338;28;7014;-75
2023/05/07 00:16:22;;;;;;;;;;;;;;;18.35;59.70;100520.91;4948746;28;8461;-75
2023/05/07 00:18:47;;;;;;;;;;;;;;;18.34;59.87;100522.63;4946374;28;6780;-76
2023/05/07 00:21:13;;;;;;;;;;;;;;;18.31;59.73;100520.88;4949499;28;6790;-78
2023/05/07 00:23:38;;;;;;;;;;;;;;;18.28;60.21;100522.53;4948675;28;7127;-75
2023/05/07 00:26:04;;;;;;;;;;;;;;;18.24;59.72;100523.31;4935304;28;6830;-76
2023/05/07 00:28:30;;;;;;;;;;;;;;;18.21;59.65;100525.84;4937572;28;6838;-75
2023/05/07 00:30:56;;;;;;;;;;;;;;;18.18;59.97;100531.84;4961761;28;6776;-76
2023/05/07 00:33:22;;;;;;;;;;;;;;;18.14;59.79;100530.91;4932666;28;6943;-77
2023/05/07 00:35:48;;;;;;;;;;;;;;;18.12;59.45;100535.22;4936536;28;6982;-74
2023/05/07 00:38:14;;;;;;;;;;;;;;;18.10;59.45;100533.44;4936153;28;6888;-75
2023/05/07 00:40:40;;;;;;;;;;;;;;;18.09;60.12;100532.56;4964253;28;6796;-75
2023/05/07 00:43:06;;;;;;;;;;;;;;;18.07;59.94;100531.69;4936052;28;7576;-75
2023/05/07 00:45:33;;;;;;;;;;;;;;;18.06;60.33;100536.81;4950296;28;6861;-74
2023/05/07 00:48:03;;;;;;;;;;;;;;;18.06;60.20;100527.34;4958075;28;6979;-75
2023/05/07 00:50:30;;;;;;;;;;;;;;;18.08;60.16;100523.03;4949662;28;7919;-76
2023/05/07 00:52:56;;;;;;;;;;;;;;;18.08;60.03;100509.19;4949465;28;6856;-75
2023/05/07 00:55:23;;;;;;;;;;;;;;;18.10;60.40;100513.56;4944499;28;6939;-75
2023/05/07 00:57:51;;;;;;;;;;;;;;;18.11;60.14;100510.13;4948811;28;7185;-77
2023/05/07 01:00:18;;;;;;;;;;;;;;;18.11;59.99;100507.53;4942761;28;7207;-75
2023/05/07 01:02:44;;;;;;;;;;;;;;;18.11;60.04;100504.94;4949526;28;7027;-77
2023/05/07 01:05:14;;;;;;;;;;;;;;;18.10;60.24;100502.31;4943758;28;6799;-76
2023/05/07 01:07:42;;;;;;;;;;;;;;;18.09;60.18;100504.03;4949583;28;7468;-75
2023/05/07 01:10:10;;;;;;;;;;;;;;;18.07;60.42;100502.25;4945176;28;6808;-78
2023/05/07 01:12:38;;;;;;;;;;;;;;;18.07;60.03;100504.84;4948193;28;7014;-78
2023/05/07 01:15:07;;;;;;;;;;;;;;;18.06;60.69;100501.41;4948939;28;6975;-75
2023/05/07 01:17:39;;;;;;;;;;;;;;;18.06;60.29;100498.81;4950016;28;6824;-75
2023/05/07 01:20:07;;;;;;;;;;;;;;;18.06;60.33;100498.81;4938754;28;6860;-75
2023/05/07 01:22:36;;;;;;;;;;;;;;;18.08;60.34;100504.00;4944862;28;6784;-75
2023/05/07 01:25:03;;;;;;;;;;;;;;;18.10;60.54;100502.31;4950214;28;6955;-75
2023/05/07 01:27:29;;;;;;;;;;;;;;;18.13;60.11;100508.44;4945011;28;7232;-76
2023/05/07 01:29:58;;;;;;;;;;;;;;;18.18;60.46;100505.91;4951422;28;6780;-76
2023/05/07 01:33:04;;;;;;;;;;;;;;;18.20;60.37;100500.78;4946380;28;6800;-78
2023/05/07 01:35:39;;;;;;;;;;;;;;;18.22;59.86;100501.66;4953209;28;7067;-76
2023/05/07 01:38:06;;;;;;;;;;;;;;;18.22;60.05;100493.88;4939034;28;7269;-75
2023/05/07 01:40:32;;;;;;;;;;;;;;;18.21;60.34;100494.72;4938140;28;6824;-75
2023/05/07 01:42:58;;;;;;;;;;;;;;;18.20;59.79;100485.22;4952855;28;6910;-76
2023/05/07 01:45:25;;;;;;;;;;;;;;;18.18;59.86;100487.75;4953151;28;6932;-76
2023/05/07 01:47:53;;;;;;;;;;;;;;;18.15;59.94;100474.75;4952219;28;6864;-76
2023/05/07 01:50:20;;;;;;;;;;;;;;;18.12;59.46;100485.94;4938387;28;7005;-75
2023/05/07 01:52:49;;;;;;;;;;;;;;;18.08;59.64;100483.25;4940972;28;6976;-75
2023/05/07 01:55:14;;;;;;;;;;;;;;;18.04;59.73;100488.41;4947366;28;6800;-76
2023/05/07 01:57:40;;;;;;;;;;;;;;;18.00;59.91;100473.56;4939124;28;6840;-76
2023/05/07 02:00:08;;;;;;;;;;;;;;;17.95;59.92;100476.94;4940202;28;7429;-75
2023/05/07 02:02:34;;;;;;;;;;;;;;;17.89;59.61;100467.31;4951977;28;6816;-75
2023/05/07 02:05:01;;;;;;;;;;;;;;;17.83;59.91;100475.84;4941322;28;6934;-76
2023/05/07 02:07:27;;;;;;;;;;;;;;;17.77;60.08;100473.16;4949245;28;6849;-75
2023/05/07 02:09:55;;;;;;;;;;;;;;;17.72;60.28;100474.78;4936788;28;7243;-75
2023/05/07 02:12:21;;;;;;;;;;;;;;;17.65;59.87;100480.66;4942112;28;6788;-77
2023/05/07 02:14:47;;;;;;;;;;;;;;;17.59;60.02;100473.66;4955351;28;6888;-78
2023/05/07 02:17:12;;;;;;;;;;;;;;;17.54;59.91;100475.28;4950039;28;6951;-77
2023/05/07 02:19:38;;;;;;;;;;;;;;;17.48;60.09;100481.22;4949582;28;7016;-78
2023/05/07 02:22:04;;;;;;;;;;;;;;;17.44;60.08;100474.22;4948589;28;6780;-78
2023/05/07 02:24:30;;;;;;;;;;;;;;;17.41;60.68;100481.94;4948024;28;6808;-78
2023/05/07 02:26:55;;;;;;;;;;;;;;;17.39;60.63;100488.81;4946299;28;6780;-78
2023/05/07 02:29:21;;;;;;;;;;;;;;;17.35;61.04;100486.13;4947576;28;7101;-78
2023/05/07 02:31:50;;;;;;;;;;;;;;;17.34;60.80;100492.16;4950695;28;6927;-77
2023/05/07 02:34:16;;;;;;;;;;;;;;;17.35;60.57;100486.13;4932548;28;6800;-77
2023/05/07 02:36:42;;;;;;;;;;;;;;;17.38;60.80;100494.78;4929013;28;6804;-78
2023/05/07 02:39:08;;;;;;;;;;;;;;;17.38;61.13;100499.97;4950385;28;6933;-78
2023/05/07 02:41:34;;;;;;;;;;;;;;;17.39;61.15;100507.78;4951598;28;6784;-78
2023/05/07 02:43:59;;;;;;;;;;;;;;;17.42;61.16;100496.63;4949712;28;6776;-78
2023/05/07 02:46:25;;;;;;;;;;;;;;;17.45;60.91;100494.97;4965088;28;6939;-78
2023/05/07 02:48:51;;;;;;;;;;;;;;;17.51;60.89;100495.94;4962837;28;7013;-78
2023/05/07 02:51:22;;;;;;;;;;;;;;;17.54;61.43;100496.88;4929182;28;6910;-77
2023/05/07 02:53:47;;;;;;;;;;;;;;;17.57;60.81;100504.69;4951927;28;6878;-77
2023/05/07 02:56:13;;;;;;;;;;;;;;;17.59;61.15;100496.97;4932717;28;7237;-77
2023/05/07 02:58:39;;;;;;;;;;;;;;;17.60;60.98;100490.94;4967213;28;6959;-78
2023/05/07 03:01:08;;;;;;;;;;;;;;;17.60;61.38;100490.94;4932208;28;9617;-77
2023/05/07 03:03:34;;;;;;;;;;;;;;;17.60;61.06;100491.84;4951842;28;7282;-77
2023/05/07 03:06:00;;;;;;;;;;;;;;;17.61;60.95;100498.75;4945641;28;6897;-77
2023/05/07 03:08:26;;;;;;;;;;;;;;;17.62;60.99;100494.44;4960735;28;7809;-77
2023/05/07 03:10:52;;;;;;;;;;;;;;;17.64;60.78;100487.59;4961383;28;7295;-78
2023/05/07 03:13:18;;;;;;;;;;;;;;;17.66;60.96;100492.78;4931175;28;6851;-78
2023/05/07 03:15:43;;;;;;;;;;;;;;;17.70;61.13;100489.44;4947646;28;6901;-77
2023/05/07 03:18:10;;;;;;;;;;;;;;;17.72;61.42;100493.81;4945912;28;7225;-77
2023/05/07 03:20:36;;;;;;;;;;;;;;;17.75;61.32;100487.78;4944958;28;7033;-77
2023/05/07 03:23:02;;;;;;;;;;;;;;;17.77;61.07;100484.38;4947486;28;6812;-77
2023/05/07 03:25:29;;;;;;;;;;;;;;;17.81;60.60;100479.25;4928293;28;6800;-78
2023/05/07 03:27:56;;;;;;;;;;;;;;;17.81;60.81;100487.91;4932656;28;6880;-77
2023/05/07 03:30:22;;;;;;;;;;;;;;;17.84;61.08;100476.75;4931931;28;6804;-77
2023/05/07 03:32:47;;;;;;;;;;;;;;;17.86;61.35;100481.09;4948674;28;7206;-77
2023/05/07 03:35:13;;;;;;;;;;;;;;;17.84;61.10;100468.97;4965498;28;6860;-77
2023/05/07 03:37:39;;;;;;;;;;;;;;;17.81;60.86;100474.97;4963747;28;6800;-78
2023/05/07 03:40:06;;;;;;;;;;;;;;;17.79;60.80;100465.41;4964338;28;6848;-75
2023/05/07 03:42:32;;;;;;;;;;;;;;;17.76;60.93;100468.78;4966539;28;6805;-75
2023/05/07 03:44:57;;;;;;;;;;;;;;;17.75;61.30;100464.47;4963118;28;6927;-77
2023/05/07 03:47:23;;;;;;;;;;;;;;;17.75;61.22;100469.63;4946499;28;6784;-77
2023/05/07 03:49:50;;;;;;;;;;;;;;;17.74;60.81;100468.78;4956262;28;6972;-77
2023/05/07 03:52:16;;;;;;;;;;;;;;;17.73;61.16;100472.22;4961223;28;6995;-77
2023/05/07 03:54:41;;;;;;;;;;;;;;;17.73;61.29;100479.13;4948967;28;6781;-78
2023/05/07 03:57:07;;;;;;;;;;;;;;;17.73;60.83;100485.19;4965296;28;7347;-77
2023/05/07 03:59:33;;;;;;;;;;;;;;;17.74;61.31;100483.44;4934711;28;7196;-77
2023/05/07 04:01:58;;;;;;;;;;;;;;;17.74;60.92;100489.53;4958263;28;6855;-77
2023/05/07 04:04:24;;;;;;;;;;;;;;;17.74;61.13;100493.81;4969444;28;6957;-77
2023/05/07 04:06:49;;;;;;;;;;;;;;;17.74;60.69;100492.13;4962808;28;7139;-77
2023/05/07 04:09:15;;;;;;;;;;;;;;;17.76;60.89;100494.72;4970541;28;7894;-77
2023/05/07 04:11:41;;;;;;;;;;;;;;;17.76;61.04;100500.78;4978527;28;6969;-77
2023/05/07 04:14:06;;;;;;;;;;;;;;;17.78;61.11;100506.00;4946624;28;6788;-77
2023/05/07 04:16:32;;;;;;;;;;;;;;;17.78;61.09;100495.66;4972094;28;8283;-77
2023/05/07 04:18:58;;;;;;;;;;;;;;;17.80;61.17;100499.13;4964165;28;6975;-77
2023/05/07 04:21:23;;;;;;;;;;;;;;;17.83;61.07;100498.34;4949627;28;7155;-77
2023/05/07 04:23:49;;;;;;;;;;;;;;;17.86;60.77;100500.97;4963570;28;7042;-78
2023/05/07 04:26:15;;;;;;;;;;;;;;;17.87;60.85;100490.66;4953533;28;7393;-78
2023/05/07 04:28:41;;;;;;;;;;;;;;;17.88;60.75;100491.50;4950695;28;8049;-77
2023/05/07 04:31:08;;;;;;;;;;;;;;;17.88;60.61;100492.38;4961442;28;7157;-77
2023/05/07 04:33:34;;;;;;;;;;;;;;;17.92;60.98;100493.31;4945195;28;8790;-77
2023/05/07 04:36:04;;;;;;;;;;;;;;;17.93;60.63;100483.81;4954562;28;6800;-77
2023/05/07 04:38:31;;;;;;;;;;;;;;;17.93;60.99;100489.00;4966502;28;7437;-77
2023/05/07 04:40:58;;;;;;;;;;;;;;;17.95;60.42;100488.19;4979208;28;7787;-77
2023/05/07 04:43:24;;;;;;;;;;;;;;;17.96;60.42;100483.84;4981511;28;7216;-78
2023/05/07 04:45:51;;;;;;;;;;;;;;;17.97;60.71;100480.44;4957969;28;7193;-77
2023/05/07 04:48:19;;;;;;;;;;;;;;;17.97;60.46;100486.50;4957966;28;7695;-77
2023/05/07 04:50:47;;;;;;;;;;;;;;;18.00;60.86;100486.53;4978684;28;7294;-77
2023/05/07 04:53:13;;;;;;;;;;;;;;;18.03;60.72;100481.47;4982994;28;7003;-77
2023/05/07 04:55:38;;;;;;;;;;;;;;;18.08;60.50;100484.16;4949736;28;6784;-77
2023/05/07 04:58:04;;;;;;;;;;;;;;;18.10;60.43;100479.84;4960232;28;6772;-77
2023/05/07 05:00:30;;;;;;;;;;;;;;;18.14;60.71;100481.63;4946304;28;6856;-77
2023/05/07 05:02:56;;;;;;;;;;;;;;;18.19;60.90;100489.50;4984954;28;6967;-78
2023/05/07 05:05:22;;;;;;;;;;;;;;;18.23;60.94;100486.13;4948734;28;6841;-77
2023/05/07 05:07:47;;;;;;;;;;;;;;;18.26;60.47;100488.78;4946780;28;6960;-77
2023/05/07 05:10:13;;;;;;;;;;;;;;;18.31;60.96;100494.94;4951036;28;6938;-77
2023/05/07 05:12:39;;;;;;;;;;;;;;;18.38;60.76;100501.09;4971961;28;7301;-77
2023/05/07 05:15:05;;;;;;;;;;;;;;;18.43;61.04;100496.84;4971543;28;6826;-77
2023/05/07 05:17:31;;;;;;;;;;;;;;;18.50;60.33;100504.75;4951871;28;6796;-77
2023/05/07 05:19:57;;;;;;;;;;;;;;;18.58;60.88;100516.13;4948288;28;6775;-77
2023/05/07 05:22:22;;;;;;;;;;;;;;;18.64;60.73;100505.88;4986717;28;6955;-76
2023/05/07 05:24:48;;;;;;;;;;;;;;;18.74;60.69;100512.06;4985752;28;6772;-76
2023/05/07 05:27:14;;;;;;;;;;;;;;;18.83;60.42;100506.13;4966990;28;6784;-75
2023/05/07 05:29:39;;;;;;;;;;;;;;;18.93;60.29;100513.25;4952209;28;6764;-76
2023/05/07 05:32:05;;;;;;;;;;;;;;;19.04;60.24;100517.75;4969738;28;7099;-75
2023/05/07 05:34:30;;;;;;;;;;;;;;;19.12;60.33;100519.59;4959221;28;6995;-76
2023/05/07 05:36:56;;;;;;;;;;;;;;;19.22;60.14;100531.03;4969086;28;7286;-76
2023/05/07 05:39:23;;;;;;;;;;;;;;;19.26;59.88;100525.00;4955972;28;6776;-76
2023/05/07 05:41:48;;;;;;;;;;;;;;;19.29;59.67;100527.63;4978320;28;6959;-76
2023/05/07 05:44:14;;;;;;;;;;;;;;;19.34;59.72;100524.25;4976115;28;6963;-76
2023/05/07 05:46:39;;;;;;;;;;;;;;;19.40;59.68;100525.19;4971351;28;6974;-76
2023/05/07 05:49:05;;;;;;;;;;;;;;;19.47;60.07;100523.53;4974664;28;7245;-76
2023/05/07 05:51:31;;;;;;;;;;;;;;;19.55;59.85;100524.53;4982718;28;6832;-75
2023/05/07 05:53:56;;;;;;;;;;;;;;;19.64;60.08;100530.69;4950939;28;6979;-75
2023/05/07 05:56:22;;;;;;;;;;;;;;;19.71;59.64;100524.72;4950092;28;6982;-76
2023/05/07 05:58:48;;;;;;;;;;;;;;;19.82;59.94;100528.31;4986688;28;6938;-77
2023/05/07 06:01:13;;;;;;;;;;;;;;;19.95;60.11;100534.59;4954711;28;6788;-76
2023/05/07 06:03:39;;;;;;;;;;;;;;;20.05;59.81;100535.53;4957823;28;6792;-77
2023/05/07 06:06:05;;;;;;;;;;;;;;;20.18;59.38;100520.06;4970769;28;6993;-76
2023/05/07 06:08:31;;;;;;;;;;;;;;;20.31;59.32;100521.94;4968761;28;6960;-76
2023/05/07 06:10:56;;;;;;;;;;;;;;;20.45;59.13;100524.69;4959208;28;6788;-76
2023/05/07 06:13:22;;;;;;;;;;;;;;;20.58;58.99;100525.66;4956515;28;7319;-76
2023/05/07 06:15:49;;;;;;;;;;;;;;;20.71;58.66;100520.53;4964056;28;6971;-76
2023/05/07 06:18:15;;;;;;;;;;;;;;;20.84;58.48;100525.00;4970004;28;7051;-76
2023/05/07 06:20:40;;;;;;;;;;;;;;;20.94;58.37;100519.00;4951774;28;7031;-76
2023/05/07 06:23:06;;;;;;;;;;;;;;;21.06;57.98;100522.59;4953114;28;6956;-76
2023/05/07 06:25:33;;;;;;;;;;;;;;;21.15;58.22;100525.25;4980888;28;7212;-76
2023/05/07 06:27:58;;;;;;;;;;;;;;;21.28;57.92;100523.56;4972541;28;6792;-76
2023/05/07 06:30:24;;;;;;;;;;;;;;;21.44;57.84;100526.25;4970875;28;7293;-76
2023/05/07 06:32:50;;;;;;;;;;;;;;;21.57;57.89;100528.06;4983135;28;6791;-76
2023/05/07 06:35:15;;;;;;;;;;;;;;;21.72;57.83;100523.81;4988094;28;6933;-76
2023/05/07 06:37:42;;;;;;;;;;;;;;;21.89;57.29;100526.47;4968949;28;6776;-76
2023/05/07 06:40:09;;;;;;;;;;;;;;;22.05;57.54;100525.66;4987779;28;7981;-77
2023/05/07 06:42:36;;;;;;;;;;;;;;;22.24;57.04;100524.81;4965576;28;6943;-76
2023/05/07 06:45:02;;;;;;;;;;;;;;;22.37;56.13;100530.94;4954509;28;6867;-76
2023/05/07 06:47:28;;;;;;;;;;;;;;;22.50;55.88;100527.47;4951079;28;7184;-76
2023/05/07 06:49:53;;;;;;;;;;;;;;;22.63;56.17;100536.19;4963558;28;7232;-77
2023/05/07 06:52:19;;;;;;;;;;;;;;;22.76;55.59;100526.63;4982402;28;7247;-77
2023/05/07 06:54:45;;;;;;;;;;;;;;;22.89;55.08;100527.50;4985474;28;6983;-76
2023/05/07 06:57:10;;;;;;;;;;;;;;;23.00;54.94;100533.56;4967857;28;6930;-77
2023/05/07 06:59:36;;;;;;;;;;;;;;;23.08;54.39;100536.19;4986271;28;7248;-77
2023/05/07 07:02:02;;;;;;;;;;;;;;;23.14;54.04;100537.91;4986337;28;6958;-76
2023/05/07 07:04:28;;;;;;;;;;;;;;;23.17;53.80;100548.38;4951658;28;6788;-77
2023/05/07 07:06:54;;;;;;;;;;;;;;;23.23;53.91;100544.88;4967770;28;6824;-76
2023/05/07 07:09:20;;;;;;;;;;;;;;;23.25;53.12;100544.00;4984620;28;7194;-75
2023/05/07 07:11:45;;;;;;;;;;;;;;;23.30;53.19;100544.00;4965726;28;6783;-76
2023/05/07 07:14:11;;;;;;;;;;;;;;;23.35;53.60;100547.47;4954303;28;6777;-77
2023/05/07 07:16:36;;;;;;;;;;;;;;;23.42;52.97;100543.13;4949882;28;6860;-77
2023/05/07 07:19:02;;;;;;;;;;;;;;;23.48;52.46;100547.47;4984378;28;8784;-76
2023/05/07 07:21:28;;;;;;;;;;;;;;;23.48;52.47;100543.06;4986361;28;7225;-77
2023/05/07 07:23:53;;;;;;;;;;;;;;;23.52;52.28;100544.81;4968281;28;6776;-77
2023/05/07 07:26:19;;;;;;;;;;;;;;;23.54;52.00;100539.56;4968463;28;7147;-76
2023/05/07 07:28:45;;;;;;;;;;;;;;;23.62;52.20;100540.41;4951084;28;7166;-77
2023/05/07 07:31:11;;;;;;;;;;;;;;;23.72;52.38;100543.88;4953780;28;6976;-76
2023/05/07 07:33:37;;;;;;;;;;;;;;;23.82;52.29;100548.19;4965616;28;7019;-77
2023/05/07 07:36:05;;;;;;;;;;;;;;;23.96;51.46;100548.13;4987328;28;7158;-76
2023/05/07 07:38:30;;;;;;;;;;;;;;;24.10;51.67;100545.47;4950908;28;7011;-76
2023/05/07 07:40:56;;;;;;;;;;;;;;;24.31;50.77;100540.09;4948836;28;6792;-76
2023/05/07 07:43:21;;;;;;;;;;;;;;;24.47;50.49;100536.47;4983654;28;6802;-76
2023/05/07 07:45:47;;;;;;;;;;;;;;;24.67;50.55;100540.69;4964849;28;7098;-76
2023/05/07 07:48:14;;;;;;;;;;;;;;;24.85;50.15;100542.31;4968391;28;8739;-76
2023/05/07 07:50:39;;;;;;;;;;;;;;;25.03;49.83;100543.91;4969255;28;6855;-75
2023/05/07 07:53:05;;;;;;;;;;;;;;;25.20;49.29;100542.84;4948477;28;6980;-76
2023/05/07 07:55:32;;;;;;;;;;;;;;;25.30;48.68;100548.88;4962728;28;7293;-76
2023/05/07 07:57:57;;;;;;;;;;;;;;;25.37;48.65;100550.53;4978439;28;7094;-76
2023/05/07 08:00:23;;;;;;;;;;;;;;;25.40;48.46;100547.88;4962943;28;7114;-76
2023/05/07 08:02:49;;;;;;;;;;;;;;;25.43;48.29;100545.22;4980144;28;6780;-76
2023/05/07 08:05:15;;;;;;;;;;;;;;;25.46;48.23;100552.19;4969009;28;6771;-74
2023/05/07 08:07:41;;;;;;;;;;;;;;;25.47;48.38;100541.69;4950920;28;7771;-75
2023/05/07 08:10:06;;;;;;;;;;;;;;;25.57;48.08;100549.47;4956245;28;6808;-74
2023/05/07 08:12:32;;;;;;;;;;;;;;;25.69;48.19;100546.69;4968365;28;6776;-74
2023/05/07 08:14:58;;;;;;;;;;;;;;;25.86;47.95;100553.50;4946786;28;6987;-74
2023/05/07 08:17:24;;;;;;;;;;;;;;;26.04;47.83;100561.13;4979648;28;6772;-74
2023/05/07 08:19:50;;;;;;;;;;;;;;;26.27;47.63;100559.94;4966793;28;7424;-73
2023/05/07 08:22:17;;;;;;;;;;;;;;;26.51;47.57;100557.84;4954600;28;6845;-75
2023/05/07 08:24:43;;;;;;;;;;;;;;;26.75;47.30;100556.56;4966017;28;6875;-73
2023/05/07 08:27:08;;;;;;;;;;;;;;;27.01;46.67;100552.63;4954634;28;7055;-74
2023/05/07 08:29:34;;;;;;;;;;;;;;;27.25;46.35;100560.09;4987120;28;6966;-75
2023/05/07 08:32:00;;;;;;;;;;;;;;;27.44;46.07;100556.22;4971775;28;6885;-75
2023/05/07 08:34:25;;;;;;;;;;;;;;;27.63;45.48;100558.50;4973409;28;6968;-74
2023/05/07 08:36:51;;;;;;;;;;;;;;;27.68;44.57;100561.91;4981277;28;8762;-73
2023/05/07 08:39:17;;;;;;;;;;;;;;;27.64;44.80;100559.38;4983810;28;7169;-75
2023/05/07 08:41:46;;;;;;;;;;;;;;;27.53;44.17;100557.81;4985072;28;7144;-74
2023/05/07 08:44:16;;;;;;;;;;;;;;;27.46;44.27;100561.44;4985805;28;7011;-75
2023/05/07 08:46:46;;;;;;;;;;;;;;;27.41;43.85;100565.91;4968469;28;7186;-74
2023/05/07 08:49:12;;;;;;;;;;;;;;;27.42;44.07;100559.75;4988464;28;7005;-74
2023/05/07 08:51:38;;;;;;;;;;;;;;;27.51;44.08;100553.47;4971504;28;6902;-73
2023/05/07 08:54:05;;;;;;;;;;;;;;;27.70;43.69;100549.59;4963382;28;7249;-73
2023/05/07 08:56:30;;;;;;;;;;;;;;;27.94;43.68;100555.22;4974410;28;7214;-75
2023/05/07 08:58:58;;;;;;;;;;;;;;;28.13;44.01;100554.78;4956198;28;6961;-74
2023/05/07 09:01:24;;;;;;;;;;;;;;;28.30;43.21;100546.56;4976127;28;6800;-74
2023/05/07 09:03:52;;;;;;;;;;;;;;;28.55;43.61;100549.44;4955507;28;6793;-74
2023/05/07 09:06:18;;;;;;;;;;;;;;;28.81;42.72;100547.06;4992143;28;6998;-74
2023/05/07 09:08:51;;;;;;;;;;;;;;;28.95;42.05;100550.22;4970398;28;6784;-74
2023/05/07 09:11:21;;;;;;;;;;;;;;;29.03;41.84;100546.50;4958750;28;7429;-72
2023/05/07 09:13:47;;;;;;;;;;;;;;;29.10;41.38;100550.72;4973678;28;7270;-72
2023/05/07 09:16:13;;;;;;;;;;;;;;;29.15;40.77;100550.59;4955581;28;6856;-75
2023/05/07 09:18:43;;;;;;;;;;;;;;;29.15;41.14;100554.09;4971561;28;7379;-73
2023/05/07 09:21:15;;;;;;;;;;;;;;;29.13;40.73;100558.56;4986412;28;6962;-76
2023/05/07 09:23:41;;;;;;;;;;;;;;;29.07;40.20;100548.16;4988547;28;6887;-72
2023/05/07 09:26:11;;;;;;;;;;;;;;;29.00;40.21;100557.16;4970654;28;7270;-72
2023/05/07 09:28:44;;;;;;;;;;;;;;;28.89;40.08;100554.78;4985590;28;7177;-73
2023/05/07 09:31:11;;;;;;;;;;;;;;;28.74;40.53;100556.03;4958382;28;7222;-73
2023/05/07 09:33:37;;;;;;;;;;;;;;;28.52;40.60;100556.56;4974347;28;6903;-73
2023/05/07 09:36:08;;;;;;;;;;;;;;;28.24;39.80;100565.97;4955679;28;7010;-73
2023/05/07 09:38:35;;;;;;;;;;;;;;;28.10;40.82;100557.50;4990200;28;7015;-73
2023/05/07 09:41:09;;;;;;;;;;;;;;;28.10;40.54;100563.66;4958223;28;7008;-72
2023/05/07 09:43:36;;;;;;;;;;;;;;;28.09;41.10;100564.53;4953663;28;6796;-74
2023/05/07 09:46:13;;;;;;;;;;;;;;;28.02;41.05;100562.97;4955474;28;6835;-75
2023/05/07 09:48:43;;;;;;;;;;;;;;;27.93;40.81;100565.78;4964845;28;6939;-74
2023/05/07 09:51:26;;;;;;;;;;;;;;;27.94;41.36;100564.88;4953198;28;6958;-73
2023/05/07 09:53:53;;;;;;;;;;;;;;;27.98;40.72;100562.16;4958240;28;7076;-72
2023/05/07 09:56:20;;;;;;;;;;;;;;;28.11;40.34;100564.50;4957014;28;7044;-75
2023/05/07 09:58:47;;;;;;;;;;;;;;;28.22;40.43;100554.63;4960067;28;7017;-74
2023/05/07 10:01:13;;;;;;;;;;;;;;;28.23;40.50;100561.63;4968654;28;6946;-74
2023/05/07 10:03:44;;;;;;;;;;;;;;;28.24;40.53;100562.50;4970624;28;7047;-74
2023/05/07 10:06:11;;;;;;;;;;;;;;;28.30;40.58;100562.38;4973280;28;6978;-73
2023/05/07 10:08:37;;;;;;;;;;;;;;;28.36;40.27;100556.06;4985098;28;7226;-75
2023/05/07 10:11:05;;;;;;;;;;;;;;;28.44;40.56;100553.25;4969456;28;7311;-73
2023/05/07 10:13:37;;;;;;;;;;;;;;;28.48;40.33;100560.16;4963866;28;6864;-73
2023/05/07 10:16:06;;;;;;;;;;;;;;;28.54;40.87;100560.91;4986984;28;6832;-73
2023/05/07 10:18:32;;;;;;;;;;;;;;;28.74;40.43;100556.03;4956810;28;6792;-74
2023/05/07 10:21:15;;;;;;;;;;;;;;;28.99;39.93;100551.00;4958711;28;6959;-73
2023/05/07 10:23:49;;;;;;;;;;;;;;;29.10;39.28;100556.84;4967201;28;7011;-73
2023/05/07 10:26:17;;;;;;;;;;;;;;;29.06;38.68;100556.97;4973344;28;7070;-74
2023/05/07 10:28:49;;;;;;;;;;;;;;;28.88;38.42;100559.22;4979113;28;6859;-75
2023/05/07 10:31:48;;;;;;;;;;;;;;;28.66;38.21;100558.88;4954835;28;6841;-73
2023/05/07 10:34:22;;;;;;;;;;;;;;;28.42;38.07;100555.91;4952597;28;6973;-73
2023/05/07 10:36:50;;;;;;;;;;;;;;;28.34;38.35;100558.75;4958380;28;7260;-72
2023/05/07 10:39:16;;;;;;;;;;;;;;;28.31;38.98;100563.22;4961350;28;6951;-74
2023/05/07 10:41:41;;;;;;;;;;;;;;;28.34;38.45;100560.50;4985548;28;6909;-73
2023/05/07 10:44:07;;;;;;;;;;;;;;;28.57;39.00;100562.56;4968875;28;7205;-75
2023/05/07 10:46:35;;;;;;;;;;;;;;;28.97;38.68;100552.81;4981212;28;6958;-73
2023/05/07 10:49:00;;;;;;;;;;;;;;;29.37;38.48;100558.78;4983853;28;6826;-76
2023/05/07 10:51:27;;;;;;;;;;;;;;;29.64;37.54;100566.84;4970026;28;6979;-73
2023/05/07 10:54:11;;;;;;;;;;;;;;;29.48;36.59;100564.66;4983301;28;6986;-73
2023/05/07 10:56:44;;;;;;;;;;;;;;;29.27;37.20;100567.88;4967785;28;6859;-73
2023/05/07 10:59:30;;;;;;;;;;;;;;;29.10;37.93;100561.28;4959822;28;6982;-73
2023/05/07 11:01:59;;;;;;;;;;;;;;;28.99;37.94;100566.84;4949914;28;7337;-74
2023/05/07 11:04:28;;;;;;;;;;;;;;;28.95;37.45;100565.19;4968125;28;6983;-73
2023/05/07 11:07:27;;;;;;;;;;;;;;;28.98;38.39;100564.25;4974076;28;7056;-73
2023/05/07 11:09:53;;;;;;;;;;;;;;;29.02;37.49;100556.22;4964824;28;6788;-73
2023/05/07 11:12:42;;;;;;;;;;;;;;;28.93;37.26;100557.31;4952010;28;6768;-72
2023/05/07 11:15:10;;;;;;;;;;;;;;;28.69;37.44;100564.94;4970282;28;7018;-72
2023/05/07 11:17:58;;;;;;;;;;;;;;;28.47;37.21;100563.72;4953656;28;7102;-75
2023/05/07 11:20:51;;;;;;;;;;;;;;;28.34;37.38;100564.00;4957918;28;6792;-74
2023/05/07 11:23:38;;;;;;;;;;;;;;;28.25;37.18;100565.09;4951683;28;6872;-75
2023/05/07 11:26:09;;;;;;;;;;;;;;;28.22;37.53;100556.41;4959578;28;7025;-75
2023/05/07 11:28:43;;;;;;;;;;;;;;;28.20;37.54;100552.91;4959796;28;7143;-72
2023/05/07 11:31:10;;;;;;;;;;;;;;;28.16;37.50;100567.03;4982561;28;6882;-73
2023/05/07 11:33:37;;;;;;;;;;;;;;;28.10;38.15;100565.41;4971651;28;7209;-73
2023/05/07 11:36:05;;;;;;;;;;;;;;;28.03;38.21;100563.81;4983058;28;7232;-72
2023/05/07 11:38:36;;;;;;;;;;;;;;;27.93;37.99;100568.44;4972376;28;7063;-74
2023/05/07 11:41:04;;;;;;;;;;;;;;;27.83;38.57;100562.47;4976097;28;6974;-72
2023/05/07 11:43:35;;;;;;;;;;;;;;;27.78;38.64;100564.38;4965111;28;6804;-73
2023/05/07 11:46:12;;;;;;;;;;;;;;;27.73;38.84;100567.94;4971362;28;7018;-73
2023/05/07 11:48:38;;;;;;;;;;;;;;;27.67;38.95;100568.09;4981061;28;7257;-73
2023/05/07 11:51:08;;;;;;;;;;;;;;;27.57;38.63;100570.03;4964401;28;6871;-72
2023/05/07 11:53:40;;;;;;;;;;;;;;;27.47;38.73;100575.47;4966899;28;6788;-72
2023/05/07 11:56:14;;;;;;;;;;;;;;;27.38;39.01;100577.41;4969322;28;7147;-73
2023/05/07 11:58:42;;;;;;;;;;;;;;;27.29;39.01;100573.16;4969489;28;6943;-73
2023/05/07 12:01:10;;;;;;;;;;;;;;;27.25;39.22;100582.03;4982710;28;6872;-73
2023/05/07 12:03:45;;;;;;;;;;;;;;;27.22;39.40;100581.22;4954153;28;7219;-73
2023/05/07 12:06:16;;;;;;;;;;;;;;;27.14;39.57;100582.22;4987896;28;6780;-74
2023/05/07 12:08:43;;;;;;;;;;;;;;;27.05;39.44;100587.63;4967940;28;8639;-72
2023/05/07 12:11:17;;;;;;;;;;;;;;;26.95;39.63;100594.84;4968151;28;6780;-75
2023/05/07 12:13:43;;;;;;;;;;;;;;;26.87;39.74;100591.44;4961813;28;7051;-74
2023/05/07 12:16:09;;;;;;;;;;;;;;;26.78;39.93;100596.84;4951167;28;6772;-75
2023/05/07 12:18:36;;;;;;;;;;;;;;;26.72;40.08;100593.41;4955561;28;6800;-73
2023/05/07 12:21:07;;;;;;;;;;;;;;;26.64;40.33;100595.28;4946756;28;7260;-72
2023/05/07 12:23:36;;;;;;;;;;;;;;;26.56;40.78;100605.94;4967902;28;6788;-73
2023/05/07 12:26:02;;;;;;;;;;;;;;;26.47;40.84;100608.69;4979623;28;8604;-72
2023/05/07 12:28:28;;;;;;;;;;;;;;;26.34;41.40;100608.88;4964899;28;7009;-74
2023/05/07 12:30:53;;;;;;;;;;;;;;;26.25;41.33;100605.50;4958536;28;7266;-73
2023/05/07 12:33:25;;;;;;;;;;;;;;;26.14;41.97;100611.75;4970038;28;6780;-73
2023/05/07 12:35:52;;;;;;;;;;;;;;;26.07;41.79;100612.72;4956426;28;6785;-73
2023/05/07 12:38:19;;;;;;;;;;;;;;;25.91;42.02;100615.53;4972959;28;6827;-73
2023/05/07 12:40:51;;;;;;;;;;;;;;;25.64;41.89;100625.47;4985741;28;7270;-73
2023/05/07 12:43:24;;;;;;;;;;;;;;;25.34;42.45;100630.13;4973014;28;6868;-74
2023/05/07 12:45:53;;;;;;;;;;;;;;;25.04;42.93;100639.13;4957604;28;6826;-72
2023/05/07 12:48:20;;;;;;;;;;;;;;;24.78;43.07;100642.84;4954392;28;7008;-73
2023/05/07 12:50:50;;;;;;;;;;;;;;;24.57;43.79;100651.69;4976271;28;6798;-72